createdAt,value
2019-02-19T00:01:53.910Z,10.59
2019-02-19T00:04:22.393Z,10.58
2019-02-19T00:06:50.870Z,10.57
2019-02-19T00:09:19.290Z,10.56
2019-02-19T00:11:47.814Z,10.53
2019-02-19T00:14:16.628Z,10.53
2019-02-19T00:16:45.151Z,10.52
2019-02-19T00:19:13.648Z,10.49
2019-02-19T00:21:42.222Z,10.47
2019-02-19T00:24:10.659Z,10.45
2019-02-19T00:26:39.106Z,10.45
2019-02-19T00:29:07.586Z,10.43
2019-02-19T00:31:36.064Z,10.41
2019-02-19T00:34:04.552Z,10.39
2019-02-19T00:36:33.302Z,10.36
2019-02-19T00:39:01.768Z,10.36
2019-02-19T00:41:30.240Z,10.34
2019-02-19T00:43:58.822Z,10.33
2019-02-19T00:46:27.360Z,10.30
2019-02-19T00:48:55.805Z,10.29
2019-02-19T00:51:24.599Z,10.26
2019-02-19T00:53:53.200Z,10.26
2019-02-19T00:56:21.759Z,10.26
2019-02-19T00:58:50.209Z,10.26
2019-02-19T01:01:18.637Z,10.25
2019-02-19T01:03:47.328Z,10.24
2019-02-19T01:06:15.760Z,10.23
2019-02-19T01:08:44.393Z,10.19
2019-02-19T01:11:12.880Z,10.16
2019-02-19T01:13:41.539Z,10.12
2019-02-19T01:16:10.719Z,10.08
2019-02-19T01:18:39.793Z,10.05
2019-02-19T01:21:08.278Z,10.03
2019-02-19T01:23:37.161Z,10.01
2019-02-19T01:26:05.631Z,9.99
2019-02-19T01:28:34.158Z,10.00
2019-02-19T01:31:02.660Z,10.01
2019-02-19T01:33:31.468Z,10.05
2019-02-19T01:35:59.950Z,10.07
2019-02-19T01:38:28.465Z,10.08
2019-02-19T01:40:57.020Z,10.07
2019-02-19T01:43:25.461Z,10.05
2019-02-19T01:45:53.953Z,10.02
2019-02-19T01:48:22.380Z,9.98
2019-02-19T01:50:51.034Z,9.95
2019-02-19T01:53:19.441Z,9.94
2019-02-19T01:55:47.906Z,9.95
2019-02-19T01:58:16.363Z,9.95
2019-02-19T02:00:44.923Z,9.99
2019-02-19T02:03:13.375Z,10.01
2019-02-19T02:05:41.893Z,10.02
2019-02-19T02:08:10.631Z,10.02
2019-02-19T02:10:39.119Z,10.02
2019-02-19T02:13:07.706Z,10.04
2019-02-19T02:15:42.547Z,10.08
2019-02-19T02:18:06.521Z,10.08
2019-02-19T02:20:35.109Z,10.05
2019-02-19T02:23:03.556Z,10.05
2019-02-19T02:25:32.096Z,10.07
2019-02-19T02:28:00.536Z,10.07
2019-02-19T02:30:29.563Z,10.08
2019-02-19T02:32:58.079Z,10.08
2019-02-19T02:35:26.602Z,10.09
2019-02-19T02:37:55.125Z,10.11
2019-02-19T02:40:23.586Z,10.13
2019-02-19T02:42:52.081Z,10.14
2019-02-19T02:45:20.545Z,10.12
2019-02-19T02:47:48.986Z,10.15
2019-02-19T02:50:17.441Z,10.16
2019-02-19T02:52:45.965Z,10.16
2019-02-19T02:55:14.448Z,10.18
2019-02-19T02:57:43.001Z,10.19
2019-02-19T03:00:12.736Z,10.19
2019-02-19T03:02:41.193Z,10.18
2019-02-19T03:05:09.764Z,10.13
2019-02-19T03:07:39.917Z,10.10
2019-02-19T03:10:08.487Z,10.10
2019-02-19T03:12:37.141Z,10.07
2019-02-19T03:15:07.300Z,10.06
2019-02-19T03:17:35.785Z,10.10
2019-02-19T03:20:05.955Z,10.10
2019-02-19T03:22:34.469Z,10.07
2019-02-19T03:25:03.355Z,10.06
2019-02-19T03:27:31.865Z,10.06
2019-02-19T03:30:00.297Z,10.07
2019-02-19T03:32:28.885Z,10.07
2019-02-19T03:34:57.487Z,10.03
2019-02-19T03:37:26.011Z,10.00
2019-02-19T03:39:54.501Z,9.92
2019-02-19T03:42:23.209Z,9.89
2019-02-19T03:44:51.832Z,9.83
2019-02-19T03:47:20.349Z,9.81
2019-02-19T03:49:48.873Z,9.78
2019-02-19T03:52:17.329Z,9.79
2019-02-19T03:54:45.927Z,9.80
2019-02-19T03:57:14.653Z,9.81
2019-02-19T03:59:43.286Z,9.84
2019-02-19T04:02:11.839Z,9.81
2019-02-19T04:04:40.530Z,9.74
2019-02-19T04:07:09.023Z,9.72
2019-02-19T04:09:37.625Z,9.71
2019-02-19T04:12:06.126Z,9.69
2019-02-19T04:14:34.640Z,9.71
2019-02-19T04:17:03.071Z,9.69
2019-02-19T04:19:31.567Z,9.65
2019-02-19T04:21:59.985Z,9.62
2019-02-19T04:24:28.565Z,9.60
2019-02-19T04:26:57.053Z,9.57
2019-02-19T04:29:25.546Z,9.57
2019-02-19T04:31:54.423Z,9.57
2019-02-19T04:34:22.867Z,9.58
2019-02-19T04:36:51.571Z,9.58
2019-02-19T04:39:20.040Z,9.55
2019-02-19T04:41:48.607Z,9.52
2019-02-19T04:44:17.080Z,9.50
2019-02-19T04:46:46.077Z,9.54
2019-02-19T04:49:14.531Z,9.57
2019-02-19T04:51:43.123Z,9.55
2019-02-19T04:54:11.553Z,9.56
2019-02-19T04:56:40.022Z,9.56
2019-02-19T04:59:08.691Z,9.51
2019-02-19T05:01:37.142Z,9.45
2019-02-19T05:04:05.769Z,9.39
2019-02-19T05:06:34.217Z,9.37
2019-02-19T05:09:02.649Z,9.38
2019-02-19T05:11:31.098Z,9.38
2019-02-19T05:13:59.593Z,9.39
2019-02-19T05:16:28.175Z,9.41
2019-02-19T05:18:56.697Z,9.39
2019-02-19T05:21:25.333Z,9.36
2019-02-19T05:23:53.830Z,9.37
2019-02-19T05:26:22.423Z,9.37
2019-02-19T05:28:50.949Z,9.36
2019-02-19T05:31:19.678Z,9.35
2019-02-19T05:33:48.104Z,9.34
2019-02-19T05:36:16.619Z,9.33
2019-02-19T05:38:45.057Z,9.28
2019-02-19T05:41:13.593Z,9.28
2019-02-19T05:43:42.089Z,9.25
2019-02-19T05:46:10.578Z,9.24
2019-02-19T05:48:39.054Z,9.20
2019-02-19T05:51:07.546Z,9.23
2019-02-19T05:53:36.002Z,9.25
2019-02-19T05:56:04.612Z,9.25
2019-02-19T05:58:33.086Z,9.25
2019-02-19T06:01:01.570Z,9.26
2019-02-19T06:03:30.081Z,9.26
2019-02-19T06:05:58.528Z,9.20
2019-02-19T06:08:26.968Z,9.22
2019-02-19T06:10:55.733Z,9.20
2019-02-19T06:13:24.262Z,9.18
2019-02-19T06:15:52.909Z,9.18
2019-02-19T06:18:21.435Z,9.19
2019-02-19T06:20:50.018Z,9.15
2019-02-19T06:23:18.462Z,9.15
2019-02-19T06:25:46.895Z,9.13
2019-02-19T06:28:15.529Z,9.11
2019-02-19T06:30:44.036Z,9.11
2019-02-19T06:33:12.575Z,9.09
2019-02-19T06:35:41.002Z,9.04
2019-02-19T06:38:09.535Z,9.02
2019-02-19T06:40:38.029Z,9.01
2019-02-19T06:43:06.527Z,9.01
2019-02-19T06:45:35.027Z,9.05
2019-02-19T06:48:03.562Z,9.08
2019-02-19T06:50:32.153Z,9.08
2019-02-19T06:53:00.632Z,9.07
2019-02-19T06:55:29.160Z,9.03
2019-02-19T06:57:57.734Z,8.98
2019-02-19T07:00:26.439Z,8.98
2019-02-19T07:03:05.518Z,8.96
2019-02-19T07:05:33.997Z,8.96
2019-02-19T07:08:02.444Z,8.94
2019-02-19T07:10:31.047Z,8.92
2019-02-19T07:12:59.471Z,8.92
2019-02-19T07:15:28.107Z,8.89
2019-02-19T07:17:56.704Z,8.85
2019-02-19T07:20:25.235Z,8.83
2019-02-19T07:22:53.659Z,8.83
2019-02-19T07:25:22.129Z,8.86
2019-02-19T07:27:50.623Z,8.85
2019-02-19T07:30:19.137Z,8.84
2019-02-19T07:32:47.599Z,8.86
2019-02-19T07:35:16.054Z,8.88
2019-02-19T07:37:44.562Z,8.90
2019-02-19T07:40:13.404Z,8.86
2019-02-19T07:42:41.840Z,8.83
2019-02-19T07:45:12.169Z,8.80
2019-02-19T07:47:40.624Z,8.81
2019-02-19T07:50:12.500Z,8.80
2019-02-19T07:52:41.040Z,8.77
2019-02-19T07:55:10.739Z,8.73
2019-02-19T07:57:39.305Z,8.74
2019-02-19T08:00:10.915Z,8.75
2019-02-19T08:02:39.439Z,8.73
2019-02-19T08:05:08.388Z,8.72
2019-02-19T08:07:36.919Z,8.72
2019-02-19T08:10:10.505Z,8.68
2019-02-19T08:12:38.968Z,8.67
2019-02-19T08:15:09.944Z,8.71
2019-02-19T08:17:39.413Z,8.71
2019-02-19T08:20:15.347Z,8.72
2019-02-19T08:22:39.707Z,8.73
2019-02-19T08:25:08.275Z,8.73
2019-02-19T08:27:36.713Z,8.77
2019-02-19T08:30:07.843Z,8.80
2019-02-19T08:32:36.313Z,8.82
2019-02-19T08:35:05.680Z,8.86
2019-02-19T08:37:34.179Z,8.87
2019-02-19T08:40:02.624Z,8.87
2019-02-19T08:42:31.281Z,8.90
2019-02-19T08:44:59.682Z,8.94
2019-02-19T08:47:28.215Z,8.98
2019-02-19T08:49:58.072Z,9.01
2019-02-19T08:52:26.689Z,9.03
2019-02-19T08:54:55.210Z,9.08
2019-02-19T08:57:23.771Z,9.11
2019-02-19T08:59:52.291Z,9.16
2019-02-19T09:02:20.863Z,9.20
2019-02-19T09:04:49.298Z,9.23
2019-02-19T09:07:17.803Z,9.25
2019-02-19T09:09:46.348Z,9.28
2019-02-19T09:12:14.919Z,9.31
2019-02-19T09:14:43.552Z,9.32
2019-02-19T09:17:12.170Z,9.36
2019-02-19T09:19:40.676Z,9.45
2019-02-19T09:22:09.107Z,9.51
2019-02-19T09:24:39.897Z,9.58
2019-02-19T09:27:08.314Z,9.64
2019-02-19T09:29:37.016Z,9.70
2019-02-19T09:32:05.442Z,9.76
2019-02-19T09:34:33.974Z,9.84
2019-02-19T09:37:02.431Z,9.89
2019-02-19T09:39:30.929Z,9.93
2019-02-19T09:41:59.659Z,9.99
2019-02-19T09:44:28.281Z,10.07
2019-02-19T09:46:56.766Z,10.16
2019-02-19T09:49:25.396Z,10.20
2019-02-19T09:51:53.999Z,10.32
2019-02-19T09:54:22.524Z,10.40
2019-02-19T09:56:51.024Z,10.45
2019-02-19T09:59:19.496Z,10.47
2019-02-19T10:01:47.925Z,10.54
2019-02-19T10:04:16.611Z,10.64
2019-02-19T10:06:45.108Z,10.74
2019-02-19T10:09:13.694Z,10.87
2019-02-19T10:11:42.300Z,11.02
2019-02-19T10:14:10.826Z,11.25
2019-02-19T10:16:41.719Z,11.44
2019-02-19T10:19:09.526Z,11.66
2019-02-19T10:21:38.013Z,11.75
2019-02-19T10:24:06.506Z,11.82
2019-02-19T10:26:35.034Z,11.76
2019-02-19T10:29:03.896Z,11.76
2019-02-19T10:31:32.361Z,11.60
2019-02-19T10:34:00.806Z,11.55
2019-02-19T10:36:29.344Z,11.59
2019-02-19T10:38:57.830Z,11.70
2019-02-19T10:41:26.501Z,12.02
2019-02-19T10:43:55.096Z,12.02
2019-02-19T10:46:23.578Z,11.98
2019-02-19T10:48:52.005Z,12.02
2019-02-19T10:51:20.802Z,12.05
2019-02-19T10:53:49.220Z,11.98
2019-02-19T10:56:17.899Z,11.95
2019-02-19T10:58:46.560Z,12.04
2019-02-19T11:01:15.470Z,12.03
2019-02-19T11:03:43.890Z,12.14
2019-02-19T11:06:12.480Z,12.33
2019-02-19T11:08:40.925Z,12.62
2019-02-19T11:11:09.453Z,12.70
2019-02-19T11:13:38.070Z,12.66
2019-02-19T11:16:06.798Z,12.80
2019-02-19T11:18:35.283Z,12.81
2019-02-19T11:21:03.835Z,12.78
2019-02-19T11:23:33.739Z,12.80
2019-02-19T11:26:02.474Z,12.75
2019-02-19T11:28:31.057Z,12.65
2019-02-19T11:30:59.616Z,12.85
2019-02-19T11:33:28.079Z,13.04
2019-02-19T11:35:56.528Z,13.03
2019-02-19T11:38:25.060Z,12.99
2019-02-19T11:40:53.535Z,12.85
2019-02-19T11:43:22.025Z,12.85
2019-02-19T11:45:50.455Z,12.91
2019-02-19T11:48:19.219Z,12.85
2019-02-19T11:50:47.672Z,12.92
2019-02-19T11:53:16.311Z,12.83
2019-02-19T11:55:44.719Z,13.22
2019-02-19T11:58:13.406Z,13.37
2019-02-19T12:00:43.627Z,13.24
2019-02-19T12:03:12.158Z,13.18
2019-02-19T12:05:40.674Z,13.47
2019-02-19T12:08:09.136Z,13.44
2019-02-19T12:10:38.108Z,13.56
2019-02-19T12:13:06.811Z,13.68
2019-02-19T12:15:35.671Z,13.59
2019-02-19T12:18:04.122Z,13.46
2019-02-19T12:20:32.649Z,13.59
2019-02-19T12:23:01.092Z,13.63
2019-02-19T12:25:29.690Z,13.35
2019-02-19T12:27:58.168Z,13.16
2019-02-19T12:30:26.708Z,13.08
2019-02-19T12:32:55.139Z,13.06
2019-02-19T12:35:23.734Z,13.16
2019-02-19T12:37:52.155Z,13.41
2019-02-19T12:40:21.239Z,13.29
2019-02-19T12:42:49.751Z,13.17
2019-02-19T12:45:18.234Z,13.07
2019-02-19T12:47:46.740Z,13.29
2019-02-19T12:50:19.390Z,13.18
2019-02-19T12:52:47.908Z,13.26
2019-02-19T12:55:16.529Z,13.39
2019-02-19T12:57:45.055Z,13.57
2019-02-19T13:00:16.609Z,13.67
2019-02-19T13:02:45.110Z,14.18
2019-02-19T13:05:14.864Z,15.04
2019-02-19T13:07:43.464Z,15.60
2019-02-19T13:10:12.611Z,16.13
2019-02-19T13:12:41.319Z,16.17
2019-02-19T13:15:14.756Z,15.92
2019-02-19T13:17:43.239Z,15.33
2019-02-19T13:20:15.883Z,15.27
2019-02-19T13:22:44.430Z,15.05
2019-02-19T13:25:13.273Z,14.89
2019-02-19T13:27:41.875Z,14.73
2019-02-19T13:30:15.770Z,14.65
2019-02-19T13:32:44.472Z,14.36
2019-02-19T13:35:13.657Z,14.17
2019-02-19T13:37:42.119Z,14.07
2019-02-19T13:40:13.048Z,14.54
2019-02-19T13:42:41.568Z,14.88
2019-02-19T13:45:14.877Z,14.97
2019-02-19T13:47:43.479Z,15.04
2019-02-19T13:50:20.709Z,14.94
2019-02-19T13:52:50.964Z,15.24
2019-02-19T13:55:21.573Z,15.24
2019-02-19T13:57:50.059Z,14.84
2019-02-19T14:00:20.512Z,14.55
2019-02-19T14:02:49.100Z,14.35
2019-02-19T14:05:17.613Z,14.24
2019-02-19T14:07:46.131Z,14.46
2019-02-19T14:10:14.655Z,14.49
2019-02-19T14:12:43.102Z,14.86
2019-02-19T14:15:25.939Z,14.64
2019-02-19T14:17:54.574Z,14.82
2019-02-19T14:20:27.458Z,14.76
2019-02-19T14:23:13.450Z,14.63
2019-02-19T14:25:49.907Z,14.71
2019-02-19T14:28:26.018Z,14.95
2019-02-19T14:31:01.561Z,14.58
2019-02-19T14:33:50.078Z,14.13
2019-02-19T14:36:20.140Z,14.60
2019-02-19T14:38:56.151Z,16.44
2019-02-19T14:41:43.026Z,16.88
2019-02-19T14:44:19.198Z,15.82
2019-02-19T14:46:51.713Z,15.18
2019-02-19T14:49:34.035Z,14.86
2019-02-19T14:51:56.367Z,14.58
2019-02-19T14:54:32.778Z,14.39
2019-02-19T14:57:02.923Z,14.14
2019-02-19T14:59:33.026Z,13.91
2019-02-19T15:02:03.099Z,13.74
2019-02-19T15:04:49.639Z,13.61
2019-02-19T15:07:37.879Z,13.59
2019-02-19T15:10:25.114Z,13.49
2019-02-19T15:13:04.425Z,13.39
2019-02-19T15:15:46.923Z,13.43
2019-02-19T15:18:20.011Z,13.43
2019-02-19T15:20:52.891Z,13.45
2019-02-19T15:23:25.983Z,13.46
2019-02-19T15:25:56.140Z,13.37
2019-02-19T15:28:38.431Z,13.34
2019-02-19T15:31:24.669Z,13.28
2019-02-19T15:33:54.854Z,13.24
2019-02-19T15:36:41.476Z,13.28
2019-02-19T15:39:20.731Z,13.24
2019-02-19T15:42:09.362Z,13.20
2019-02-19T15:44:54.691Z,13.16
2019-02-19T15:47:24.799Z,13.14
2019-02-19T15:50:01.098Z,13.14
2019-02-19T15:52:37.396Z,13.15
2019-02-19T15:55:23.988Z,13.12
2019-02-19T15:58:12.451Z,13.02
2019-02-19T16:00:48.256Z,12.92
2019-02-19T16:03:24.132Z,12.78
2019-02-19T16:05:54.407Z,12.72
2019-02-19T16:08:39.708Z,12.68
2019-02-19T16:11:12.992Z,12.63
2019-02-19T16:14:00.858Z,12.60
2019-02-19T16:16:47.301Z,12.54
2019-02-19T16:19:17.517Z,12.37
2019-02-19T16:21:47.592Z,12.27
2019-02-19T16:24:24.158Z,12.27
2019-02-19T16:27:00.230Z,12.18
2019-02-19T16:29:42.555Z,12.08
2019-02-19T16:32:21.726Z,12.02
2019-02-19T16:34:54.607Z,11.99
2019-02-19T16:37:37.202Z,11.98
2019-02-19T16:40:08.541Z,11.92
2019-02-19T16:42:38.601Z,11.86
2019-02-19T16:45:22.307Z,11.83
2019-02-19T16:47:54.914Z,11.83
2019-02-19T16:50:25.221Z,11.77
2019-02-19T16:53:13.757Z,11.71
2019-02-19T16:56:00.502Z,11.63
2019-02-19T16:58:30.698Z,11.58
2019-02-19T17:01:03.939Z,11.56
2019-02-19T17:03:34.248Z,11.51
2019-02-19T17:06:07.538Z,11.45
2019-02-19T17:08:40.565Z,11.40
2019-02-19T17:11:10.713Z,11.35
2019-02-19T17:13:58.318Z,11.35
2019-02-19T17:16:33.516Z,11.34
2019-02-19T17:19:09.879Z,11.29
2019-02-19T17:21:40.073Z,11.27
2019-02-19T17:24:15.986Z,11.23
2019-02-19T17:26:52.254Z,11.18
2019-02-19T17:29:22.335Z,11.15
2019-02-19T17:32:01.288Z,11.13
2019-02-19T17:34:34.318Z,11.11
2019-02-19T17:37:07.136Z,11.06
2019-02-19T17:39:43.211Z,11.03
2019-02-19T17:42:13.505Z,10.99
2019-02-19T17:44:46.598Z,10.96
2019-02-19T17:47:28.804Z,10.90
2019-02-19T17:50:08.063Z,10.88
2019-02-19T17:52:38.171Z,10.82
2019-02-19T17:55:19.967Z,10.81
2019-02-19T17:57:50.133Z,10.80
2019-02-19T18:00:26.624Z,10.79
2019-02-19T18:02:56.896Z,10.76
2019-02-19T18:05:26.951Z,10.71
2019-02-19T18:08:02.909Z,10.73
2019-02-19T18:10:35.869Z,10.74
2019-02-19T18:13:15.157Z,10.74
2019-02-19T18:16:03.357Z,10.74
2019-02-19T18:18:45.465Z,10.73
2019-02-19T18:21:13.906Z,10.73
2019-02-19T18:23:42.385Z,10.70
2019-02-19T18:26:10.840Z,10.68
2019-02-19T18:28:39.342Z,10.65
2019-02-19T18:31:07.825Z,10.59
2019-02-19T18:33:36.881Z,10.57
2019-02-19T18:36:05.541Z,10.56
2019-02-19T18:38:34.128Z,10.54
2019-02-19T18:41:02.824Z,10.51
2019-02-19T18:43:31.356Z,10.51
2019-02-19T18:45:59.773Z,10.52
2019-02-19T18:48:28.432Z,10.49
2019-02-19T18:50:58.535Z,10.48
2019-02-19T18:53:27.256Z,10.44
2019-02-19T18:55:56.062Z,10.39
2019-02-19T18:58:24.629Z,10.39
2019-02-19T19:00:53.165Z,10.37
2019-02-19T19:03:21.765Z,10.37
2019-02-19T19:05:50.437Z,10.36
2019-02-19T19:08:18.947Z,10.35
2019-02-19T19:10:47.469Z,10.34
2019-02-19T19:13:15.909Z,10.31
2019-02-19T19:15:44.383Z,10.30
2019-02-19T19:18:12.958Z,10.30
2019-02-19T19:20:41.488Z,10.26
2019-02-19T19:23:10.096Z,10.25
2019-02-19T19:25:38.557Z,10.21
2019-02-19T19:28:08.497Z,10.20
2019-02-19T19:30:37.246Z,10.18
2019-02-19T19:33:05.682Z,10.16
2019-02-19T19:35:34.217Z,10.14
2019-02-19T19:38:02.673Z,10.15
2019-02-19T19:40:31.154Z,10.13
2019-02-19T19:42:59.856Z,10.11
2019-02-19T19:45:28.502Z,10.07
2019-02-19T19:47:57.042Z,10.05
2019-02-19T19:50:25.526Z,10.04
2019-02-19T19:52:54.141Z,10.02
2019-02-19T19:55:22.648Z,9.99
2019-02-19T19:57:51.566Z,9.95
2019-02-19T20:00:20.831Z,9.91
2019-02-19T20:02:49.307Z,9.87
2019-02-19T20:05:17.816Z,9.89
2019-02-19T20:07:46.374Z,9.90
2019-02-19T20:10:15.683Z,9.93
2019-02-19T20:12:44.176Z,9.95
2019-02-19T20:15:13.175Z,9.95
2019-02-19T20:17:41.718Z,9.95
2019-02-19T20:20:11.614Z,9.95
2019-02-19T20:22:40.259Z,9.97
2019-02-19T20:25:11.055Z,9.97
2019-02-19T20:27:39.680Z,9.98
2019-02-19T20:30:13.191Z,9.97
2019-02-19T20:32:41.914Z,9.95
2019-02-19T20:35:11.171Z,9.94
2019-02-19T20:37:39.888Z,9.94
2019-02-19T20:40:10.123Z,9.91
2019-02-19T20:42:38.616Z,9.89
2019-02-19T20:45:11.649Z,9.85
2019-02-19T20:47:40.247Z,9.84
2019-02-19T20:50:10.654Z,9.82
2019-02-19T20:52:39.390Z,9.75
2019-02-19T20:55:10.922Z,9.72
2019-02-19T20:57:39.602Z,9.69
2019-02-19T21:00:16.704Z,9.64
2019-02-19T21:02:45.304Z,9.60
2019-02-19T21:05:13.921Z,9.57
2019-02-19T21:07:42.475Z,9.54
2019-02-19T21:10:16.598Z,9.50
2019-02-19T21:12:45.175Z,9.44
2019-02-19T21:15:14.075Z,9.41
2019-02-19T21:17:42.671Z,9.37
2019-02-19T21:20:12.396Z,9.32
2019-02-19T21:22:40.892Z,9.29
2019-02-19T21:25:11.001Z,9.28
2019-02-19T21:27:39.591Z,9.25
2019-02-19T21:30:13.697Z,9.22
2019-02-19T21:32:42.223Z,9.20
2019-02-19T21:35:11.016Z,9.16
2019-02-19T21:37:39.478Z,9.12
2019-02-19T21:40:12.440Z,9.07
2019-02-19T21:42:41.012Z,9.02
2019-02-19T21:45:14.876Z,9.00
2019-02-19T21:47:43.433Z,8.99
2019-02-19T21:50:14.895Z,8.95
2019-02-19T21:52:43.275Z,8.92
2019-02-19T21:55:12.922Z,8.92
2019-02-19T21:57:41.360Z,8.89
2019-02-19T22:00:18.800Z,8.82
2019-02-19T22:02:47.479Z,8.82
2019-02-19T22:05:16.116Z,8.80
2019-02-19T22:07:44.603Z,8.74
2019-02-19T22:10:16.441Z,8.69
2019-02-19T22:12:44.937Z,8.66
2019-02-19T22:15:14.601Z,8.61
2019-02-19T22:17:43.133Z,8.61
2019-02-19T22:20:16.055Z,8.60
2019-02-19T22:22:44.608Z,8.56
2019-02-19T22:25:13.010Z,8.54
2019-02-19T22:27:41.965Z,8.54
2019-02-19T22:30:10.761Z,8.52
2019-02-19T22:32:39.457Z,8.51
2019-02-19T22:35:08.168Z,8.49
2019-02-19T22:37:36.780Z,8.48
2019-02-19T22:40:07.542Z,8.46
2019-02-19T22:42:36.079Z,8.47
2019-02-19T22:45:06.310Z,8.49
2019-02-19T22:47:34.791Z,8.51
2019-02-19T22:50:03.914Z,8.55
2019-02-19T22:52:32.446Z,8.59
2019-02-19T22:55:08.649Z,8.62
2019-02-19T22:57:37.221Z,8.64
2019-02-19T23:00:10.343Z,8.62
2019-02-19T23:02:38.879Z,8.63
2019-02-19T23:05:07.565Z,8.59
2019-02-19T23:07:36.057Z,8.57
2019-02-19T23:10:06.093Z,8.54
2019-02-19T23:12:35.008Z,8.53
2019-02-19T23:15:03.609Z,8.54
2019-02-19T23:17:32.147Z,8.53
2019-02-19T23:20:00.600Z,8.52
2019-02-19T23:22:29.029Z,8.52
2019-02-19T23:24:57.574Z,8.47
2019-02-19T23:27:25.999Z,8.45
2019-02-19T23:29:54.870Z,8.41
2019-02-19T23:32:23.284Z,8.40
2019-02-19T23:34:53.413Z,8.39
2019-02-19T23:37:21.850Z,8.41
2019-02-19T23:39:50.560Z,8.42
2019-02-19T23:42:19.010Z,8.46
2019-02-19T23:44:47.616Z,8.46
2019-02-19T23:47:16.220Z,8.44
2019-02-19T23:49:44.673Z,8.45
2019-02-19T23:52:13.280Z,8.47
2019-02-19T23:54:41.733Z,8.49
2019-02-19T23:57:10.205Z,8.45
2019-02-19T23:59:38.747Z,8.43
